Decoded Metar for KHEI (HETTINGER in ND, USA) (IATA:HEI) | Meteo·Mobile Aviation Weather
aviador You're here:

KHEI Decoded Metar

HETTINGER in ND, USA
Report Time2018-09-20 03:53:00
UTC Time2018-09-20 04:36:33
Flight Rules vfr VFR
Wind070° at 09 kt
W.Decomp.*RWY 12: 4.8 kt HW 7.6 kt LCW
RWY 35: 2.8 kt HW 8.6 kt RCW
W.Rank070° ranks 22
Current wind is above 070° avg. (8.4)
Visibility9999 m
Phenomena:N/A
Clouds:Overcast 055 Hf
Expected CloudBase > 2,000 ft AGL from Temp-Dew spread
Ceiling5,500 ft
Temp12°C (ISA +2)
Dew Point07°C (72% RH)
AAT8.1°C
QNH1019 hPa
Density Alt2,943 ft
Elevation2,717 ft
Report Wrong Elevation
Raw Report
KHEI 200353Z AUTO 07009KT 10SM OVC055 12/07 A3008 RMK AO2 SLP188
T01220072=

Extra information for KHEI:More info

Metar Taf Metar & Taf Last 4 Metars F.Rules Stats Wind Profile Meteogram Temp Stats Airport Information Weather charts Add Link Nearby VenuesMetar ALERT Operation Metar Decoded Social comments

AIRNAV info for KHEI